Jacksonville Fire — MARINE1 — position and weather

sailwx.info

Track history (hours):
 
Tides and Currents Weather Stations Pressure Air Temp Water Temp Dewpoint Dewpoint Depression Visibility Wind Speed Wind Dir Waves Ship Positions

Jacksonville Fire

Last reported at 2018-Jun-21 16:59 UTC. Time now 2018-Jun-21 17:54 UTC.
Position N 42°22' W 071°03'.

Length 22 m.

MMSI: 338101854.

Date/timePositionNaut miles runAvg speedWind from/ knotsBaromVisibWave heightAir tempDewpointWater temp
2018-Jun-21 16:59N 42°22' W 071°03'1 1.3
2018-Jun-21 16:30N 42°21' W 071°03'1 0.6
2018-Jun-21 15:32N 42°22' W 071°03'0 0.0
2018-Jun-21 15:30N 42°22' W 071°03'5 9.0
2018-Jun-21 15:00N 42°20' W 070°58'3 2.8
2018-Jun-21 14:00N 42°17' W 070°56'3 6.0
2018-Jun-21 13:30N 42°20' W 070°58'2 4.5
2018-Jun-21 13:00N 42°20' W 071°01'2 0.2
2018-Jun-21 00:59N 42°22' W 071°03'0 0.0
2018-Jun-21 00:28N 42°22' W 071°03'0 0.0
2018-Jun-20 23:58N 42°22' W 071°03'2 4.6
2018-Jun-20 23:30N 42°21' W 071°01'1 2.7
2018-Jun-20 22:59N 42°21' W 071°02'1 0.1
2018-Jun-20 16:33N 42°22' W 071°03'0 0.3
2018-Jun-20 16:28N 42°22' W 071°03'1 1.3
2018-Jun-20 16:00N 42°21' W 071°03'1 1.2
2018-Jun-20 15:30N 42°22' W 071°03'0 0.0
2018-Jun-20 15:00N 42°22' W 071°03'0 0.0
2018-Jun-20 14:24N 42°22' W 071°03'0 0.0
2018-Jun-19 15:46N 42°22' W 071°03'1 4.4
2018-Jun-19 15:27N 42°23' W 071°04'237514467.6
2018-Jun-19 15:18N 37°52' W 122°30'0 0.0
2018-Jun-19 15:00N 37°52' W 122°30'237682244.3
2018-Jun-19 14:58N 42°22' W 071°03'23765103.5
2018-Jun-19 14:30N 37°52' W 122°30'2376185943.7
2018-Jun-19 14:29N 42°22' W 071°03'23764879.3
2018-Jun-19 14:00N 37°52' W 122°30'2376131595.0
2018-Jun-19 13:59N 42°22' W 071°03'23764930.1
2018-Jun-19 13:30N 37°52' W 122°30'0 0.0
2018-Jun-19 13:00N 37°52' W 122°30'0 0.0
2018-Jun-19 12:30N 37°52' W 122°30'0 0.0
2018-Jun-19 12:00N 37°52' W 122°30'0 0.0
2018-Jun-19 11:30N 37°52' W 122°30'0 0.0
2018-Jun-19 11:00N 37°52' W 122°30'0 0.0
2018-Jun-19 10:30N 37°52' W 122°30'0 0.0
2018-Jun-19 10:00N 37°52' W 122°30'0 0.0
2018-Jun-19 09:30N 37°52' W 122°30'0 0.0
2018-Jun-19 09:00N 37°52' W 122°30'0 0.0
2018-Jun-19 08:30N 37°52' W 122°30'0 0.0
2018-Jun-19 08:00N 37°52' W 122°30'0 0.0
2018-Jun-19 07:30N 37°52' W 122°30'0 0.0
2018-Jun-19 07:00N 37°52' W 122°30'0 0.0
2018-Jun-19 06:30N 37°52' W 122°30'0 0.0
2018-Jun-19 06:00N 37°52' W 122°30'0 0.0
2018-Jun-19 05:30N 37°52' W 122°30'0 0.0
2018-Jun-19 05:00N 37°52' W 122°30'0 0.0
2018-Jun-19 04:30N 37°52' W 122°30'0 0.0
2018-Jun-19 04:00N 37°52' W 122°30'0 0.0
2018-Jun-19 03:30N 37°52' W 122°30'0 0.0
2018-Jun-19 03:00N 37°52' W 122°30'0 0.0
2018-Jun-19 02:30N 37°52' W 122°30'0 0.0
2018-Jun-19 01:59N 37°52' W 122°30'0 0.0
2018-Jun-19 01:30N 37°52' W 122°30'0 0.0
2018-Jun-19 01:00N 37°52' W 122°30'0 0.0
2018-Jun-19 00:30N 37°52' W 122°30'0 0.0
2018-Jun-18 23:59N 37°52' W 122°30'0 0.0
2018-Jun-18 23:30N 37°52' W 122°30'0 0.0
2018-Jun-18 23:00N 37°52' W 122°30'0 0.0
2018-Jun-18 22:30N 37°52' W 122°30'0 0.0
2018-Jun-18 22:00N 37°52' W 122°30'0 0.0
2018-Jun-18 21:30N 37°52' W 122°30'0 0.0
2018-Jun-18 21:00N 37°52' W 122°30'0 0.0
2018-Jun-18 20:29N 37°52' W 122°30'0 0.0
2018-Jun-18 20:00N 37°52' W 122°30'0 0.0
2018-Jun-18 19:30N 37°52' W 122°30'0 0.0
2018-Jun-18 19:00N 37°52' W 122°30'0 0.0
2018-Jun-18 18:30N 37°52' W 122°30'0 0.0
2018-Jun-18 17:58N 37°52' W 122°30'0 0.0
2018-Jun-18 17:30N 37°52' W 122°30'0 0.0
2018-Jun-18 16:58N 37°52' W 122°30'0 0.0
2018-Jun-18 16:30N 37°52' W 122°30'0 0.0
2018-Jun-18 16:00N 37°52' W 122°30'0 0.0
2018-Jun-18 15:29N 37°52' W 122°30'2376221.1
2018-Jun-18 04:44N 42°22' W 071°03'1 3.8
2018-Jun-18 04:30N 42°23' W 071°03'1 0.1
2018-Jun-17 19:45N 42°22' W 071°03'1 5.2
2018-Jun-17 19:30N 42°21' W 071°02'1 1.3
2018-Jun-17 18:59N 42°22' W 071°02'0 0.7
2018-Jun-17 18:30N 42°22' W 071°03'0 0.0
2018-Jun-16 23:56N 42°22' W 071°03'0 0.0
2018-Jun-16 23:29N 42°22' W 071°03'0 0.0
2018-Jun-16 22:57N 42°22' W 071°03'0 0.0
2018-Jun-16 22:30N 42°22' W 071°03'0 0.0
2018-Jun-16 21:59N 42°22' W 071°03'1 1.9
2018-Jun-16 21:28N 42°22' W 071°02'1 2.0
2018-Jun-16 20:58N 42°22' W 071°03'0 0.0
2018-Jun-16 20:28N 42°22' W 071°03'0 0.0
2018-Jun-16 19:58N 42°22' W 071°03'0 0.0
2018-Jun-16 19:28N 42°22' W 071°03'0 0.0
2018-Jun-16 18:58N 42°22' W 071°03'0 0.0
2018-Jun-16 18:28N 42°22' W 071°03'0 0.0
2018-Jun-16 17:58N 42°22' W 071°03'0 0.0
2018-Jun-16 17:28N 42°22' W 071°03'0 0.0
2018-Jun-16 16:58N 42°22' W 071°03'1 2.5
2018-Jun-16 16:31N 42°21' W 071°02'2 4.1
2018-Jun-16 16:00N 42°20' W 070°60'1 1.6
2018-Jun-16 15:30N 42°19' W 070°59'2 4.2
2018-Jun-16 15:00N 42°21' W 071°01'1 2.8
2018-Jun-16 14:30N 42°22' W 071°03'0 0.9
2018-Jun-16 13:58N 42°22' W 071°03'0 0.0
2018-Jun-15 23:13N 42°22' W 071°03'312.2
2018-Jun-15 22:57N 42°20' W 070°59'3 6.1
2018-Jun-15 22:30N 42°22' W 071°03'  
2018-Jun-13 16:44N 42°22' W 071°03'0 0.0
2018-Jun-13 16:29N 42°22' W 071°03'0 0.0
2018-Jun-13 15:59N 42°22' W 071°03'0 0.0
2018-Jun-13 15:29N 42°22' W 071°03'0 0.0
2018-Jun-13 14:59N 42°22' W 071°03'0 0.0
2018-Jun-13 14:29N 42°22' W 071°03'0 0.0
2018-Jun-13 13:59N 42°22' W 071°03'0 0.0
2018-Jun-13 13:29N 42°22' W 071°03'0 0.0
2018-Jun-12 15:34N 42°22' W 071°03'0 0.0
2018-Jun-12 15:28N 42°22' W 071°03'0 0.0
2018-Jun-12 14:58N 42°22' W 071°03'0 0.0
2018-Jun-12 14:28N 42°22' W 071°03'2376124.6
2018-Jun-11 19:24N 37°52' W 122°30'  
Track history (hours):
 
Tides and Currents Weather Stations Pressure Air Temp Water Temp Dewpoint Dewpoint Depression Visibility Wind Speed Wind Dir Waves Ship Positions

Jacksonville Fire

Last reported at 2018-Jun-21 16:59 UTC. Time now 2018-Jun-21 17:54 UTC.
Position N 42°22' W 071°03'.

Length 22 m.

MMSI: 338101854.

Date/timePositionNaut miles runAvg speedWind from/ knotsBaromVisibWave heightAir tempDewpointWater temp
2018-Jun-21 16:59N 42°22' W 071°03'1 1.3
2018-Jun-21 16:30N 42°21' W 071°03'1 0.6
2018-Jun-21 15:32N 42°22' W 071°03'0 0.0
2018-Jun-21 15:30N 42°22' W 071°03'5 9.0
2018-Jun-21 15:00N 42°20' W 070°58'3 2.8
2018-Jun-21 14:00N 42°17' W 070°56'3 6.0
2018-Jun-21 13:30N 42°20' W 070°58'2 4.5
2018-Jun-21 13:00N 42°20' W 071°01'2 0.2
2018-Jun-21 00:59N 42°22' W 071°03'0 0.0
2018-Jun-21 00:28N 42°22' W 071°03'0 0.0
2018-Jun-20 23:58N 42°22' W 071°03'2 4.6
2018-Jun-20 23:30N 42°21' W 071°01'1 2.7
2018-Jun-20 22:59N 42°21' W 071°02'1 0.1
2018-Jun-20 16:33N 42°22' W 071°03'0 0.3
2018-Jun-20 16:28N 42°22' W 071°03'1 1.3
2018-Jun-20 16:00N 42°21' W 071°03'1 1.2
2018-Jun-20 15:30N 42°22' W 071°03'0 0.0
2018-Jun-20 15:00N 42°22' W 071°03'0 0.0
2018-Jun-20 14:24N 42°22' W 071°03'0 0.0
2018-Jun-19 15:46N 42°22' W 071°03'1 4.4
2018-Jun-19 15:27N 42°23' W 071°04'237514467.6
2018-Jun-19 15:18N 37°52' W 122°30'0 0.0
2018-Jun-19 15:00N 37°52' W 122°30'237682244.3
2018-Jun-19 14:58N 42°22' W 071°03'23765103.5
2018-Jun-19 14:30N 37°52' W 122°30'2376185943.7
2018-Jun-19 14:29N 42°22' W 071°03'23764879.3
2018-Jun-19 14:00N 37°52' W 122°30'2376131595.0
2018-Jun-19 13:59N 42°22' W 071°03'23764930.1
2018-Jun-19 13:30N 37°52' W 122°30'0 0.0
2018-Jun-19 13:00N 37°52' W 122°30'0 0.0
2018-Jun-19 12:30N 37°52' W 122°30'0 0.0
2018-Jun-19 12:00N 37°52' W 122°30'0 0.0
2018-Jun-19 11:30N 37°52' W 122°30'0 0.0
2018-Jun-19 11:00N 37°52' W 122°30'0 0.0
2018-Jun-19 10:30N 37°52' W 122°30'0 0.0
2018-Jun-19 10:00N 37°52' W 122°30'0 0.0
2018-Jun-19 09:30N 37°52' W 122°30'0 0.0
2018-Jun-19 09:00N 37°52' W 122°30'0 0.0
2018-Jun-19 08:30N 37°52' W 122°30'0 0.0
2018-Jun-19 08:00N 37°52' W 122°30'0 0.0
2018-Jun-19 07:30N 37°52' W 122°30'0 0.0
2018-Jun-19 07:00N 37°52' W 122°30'0 0.0
2018-Jun-19 06:30N 37°52' W 122°30'0 0.0
2018-Jun-19 06:00N 37°52' W 122°30'0 0.0
2018-Jun-19 05:30N 37°52' W 122°30'0 0.0
2018-Jun-19 05:00N 37°52' W 122°30'0 0.0
2018-Jun-19 04:30N 37°52' W 122°30'0 0.0
2018-Jun-19 04:00N 37°52' W 122°30'0 0.0
2018-Jun-19 03:30N 37°52' W 122°30'0 0.0
2018-Jun-19 03:00N 37°52' W 122°30'0 0.0
2018-Jun-19 02:30N 37°52' W 122°30'0 0.0
2018-Jun-19 01:59N 37°52' W 122°30'0 0.0
2018-Jun-19 01:30N 37°52' W 122°30'0 0.0
2018-Jun-19 01:00N 37°52' W 122°30'0 0.0
2018-Jun-19 00:30N 37°52' W 122°30'0 0.0
2018-Jun-18 23:59N 37°52' W 122°30'0 0.0
2018-Jun-18 23:30N 37°52' W 122°30'0 0.0
2018-Jun-18 23:00N 37°52' W 122°30'0 0.0
2018-Jun-18 22:30N 37°52' W 122°30'0 0.0
2018-Jun-18 22:00N 37°52' W 122°30'0 0.0
2018-Jun-18 21:30N 37°52' W 122°30'0 0.0
2018-Jun-18 21:00N 37°52' W 122°30'0 0.0
2018-Jun-18 20:29N 37°52' W 122°30'0 0.0
2018-Jun-18 20:00N 37°52' W 122°30'0 0.0
2018-Jun-18 19:30N 37°52' W 122°30'0 0.0
2018-Jun-18 19:00N 37°52' W 122°30'0 0.0
2018-Jun-18 18:30N 37°52' W 122°30'0 0.0
2018-Jun-18 17:58N 37°52' W 122°30'0 0.0
2018-Jun-18 17:30N 37°52' W 122°30'0 0.0
2018-Jun-18 16:58N 37°52' W 122°30'0 0.0
2018-Jun-18 16:30N 37°52' W 122°30'0 0.0
2018-Jun-18 16:00N 37°52' W 122°30'0 0.0
2018-Jun-18 15:29N 37°52' W 122°30'2376221.1
2018-Jun-18 04:44N 42°22' W 071°03'1 3.8
2018-Jun-18 04:30N 42°23' W 071°03'1 0.1
2018-Jun-17 19:45N 42°22' W 071°03'1 5.2
2018-Jun-17 19:30N 42°21' W 071°02'1 1.3
2018-Jun-17 18:59N 42°22' W 071°02'0 0.7
2018-Jun-17 18:30N 42°22' W 071°03'0 0.0
2018-Jun-16 23:56N 42°22' W 071°03'0 0.0
2018-Jun-16 23:29N 42°22' W 071°03'0 0.0
2018-Jun-16 22:57N 42°22' W 071°03'0 0.0
2018-Jun-16 22:30N 42°22' W 071°03'0 0.0
2018-Jun-16 21:59N 42°22' W 071°03'1 1.9
2018-Jun-16 21:28N 42°22' W 071°02'1 2.0
2018-Jun-16 20:58N 42°22' W 071°03'0 0.0
2018-Jun-16 20:28N 42°22' W 071°03'0 0.0
2018-Jun-16 19:58N 42°22' W 071°03'0 0.0
2018-Jun-16 19:28N 42°22' W 071°03'0 0.0
2018-Jun-16 18:58N 42°22' W 071°03'0 0.0
2018-Jun-16 18:28N 42°22' W 071°03'0 0.0
2018-Jun-16 17:58N 42°22' W 071°03'0 0.0
2018-Jun-16 17:28N 42°22' W 071°03'0 0.0
2018-Jun-16 16:58N 42°22' W 071°03'1 2.5
2018-Jun-16 16:31N 42°21' W 071°02'2 4.1
2018-Jun-16 16:00N 42°20' W 070°60'1 1.6
2018-Jun-16 15:30N 42°19' W 070°59'2 4.2
2018-Jun-16 15:00N 42°21' W 071°01'1 2.8
2018-Jun-16 14:30N 42°22' W 071°03'0 0.9
2018-Jun-16 13:58N 42°22' W 071°03'0 0.0
2018-Jun-15 23:13N 42°22' W 071°03'312.2
2018-Jun-15 22:57N 42°20' W 070°59'3 6.1
2018-Jun-15 22:30N 42°22' W 071°03'  
2018-Jun-13 16:44N 42°22' W 071°03'0 0.0
2018-Jun-13 16:29N 42°22' W 071°03'0 0.0
2018-Jun-13 15:59N 42°22' W 071°03'0 0.0
2018-Jun-13 15:29N 42°22' W 071°03'0 0.0
2018-Jun-13 14:59N 42°22' W 071°03'0 0.0
2018-Jun-13 14:29N 42°22' W 071°03'0 0.0
2018-Jun-13 13:59N 42°22' W 071°03'0 0.0
2018-Jun-13 13:29N 42°22' W 071°03'0 0.0
2018-Jun-12 15:34N 42°22' W 071°03'0 0.0
2018-Jun-12 15:28N 42°22' W 071°03'0 0.0
2018-Jun-12 14:58N 42°22' W 071°03'0 0.0
2018-Jun-12 14:28N 42°22' W 071°03'2376124.6
2018-Jun-11 19:24N 37°52' W 122°30'  

Dump ship's entire track history